createdAt,value
2022-11-20T00:03:24.074Z,85.68
2022-11-20T00:08:25.128Z,85.28
2022-11-20T00:13:33.055Z,84.96
2022-11-20T00:18:34.931Z,84.77
2022-11-20T00:23:36.470Z,84.60
2022-11-20T00:28:37.789Z,84.55
2022-11-20T00:33:39.740Z,84.84
2022-11-20T00:38:41.828Z,85.10
2022-11-20T00:43:43.599Z,84.97
2022-11-20T00:48:45.709Z,84.91
2022-11-20T00:53:47.358Z,85.02
2022-11-20T00:58:49.484Z,85.18
2022-11-20T01:03:52.439Z,85.11
2022-11-20T01:08:55.867Z,85.25
2022-11-20T01:13:58.709Z,85.50
2022-11-20T01:19:02.066Z,85.69
2022-11-20T01:24:05.241Z,85.58
2022-11-20T01:29:07.874Z,85.25
2022-11-20T01:34:16.401Z,84.85
2022-11-20T01:39:20.744Z,84.65
2022-11-20T01:44:43.273Z,84.52
2022-11-20T01:49:52.988Z,84.46
2022-11-20T01:55:15.118Z,84.70
2022-11-20T02:00:18.943Z,85.26
2022-11-20T02:05:24.421Z,85.69
2022-11-20T02:10:27.469Z,85.87
2022-11-20T02:15:30.486Z,85.96
2022-11-20T02:20:32.417Z,85.64
2022-11-20T02:25:35.938Z,85.15
2022-11-20T02:30:37.060Z,84.74
2022-11-20T02:35:43.954Z,84.42
2022-11-20T02:40:45.122Z,84.20
2022-11-20T02:45:46.278Z,84.09
2022-11-20T02:50:47.354Z,83.95
2022-11-20T02:55:49.171Z,83.87
2022-11-20T03:00:50.205Z,83.79
2022-11-20T03:05:51.426Z,83.74
2022-11-20T03:10:52.778Z,84.05
2022-11-20T03:15:53.819Z,84.33
2022-11-20T03:20:59.107Z,84.45
2022-11-20T03:26:21.159Z,84.28
2022-11-20T03:31:28.378Z,84.12
2022-11-20T03:36:30.471Z,83.90
2022-11-20T03:41:32.239Z,83.56
2022-11-20T03:46:33.581Z,83.24
2022-11-20T03:51:36.215Z,83.02
2022-11-20T03:56:38.673Z,82.93
2022-11-20T04:01:42.122Z,82.89
2022-11-20T04:06:46.177Z,82.81
2022-11-20T04:11:47.373Z,82.78
2022-11-20T04:16:48.466Z,82.74
2022-11-20T04:21:49.587Z,83.03
2022-11-20T04:26:50.751Z,83.49
2022-11-20T04:31:51.785Z,83.92
2022-11-20T04:36:52.867Z,84.25
2022-11-20T04:42:13.891Z,84.31
2022-11-20T04:47:14.965Z,84.30
2022-11-20T04:52:16.108Z,83.88
2022-11-20T04:57:17.146Z,83.59
2022-11-20T05:02:18.433Z,83.50
2022-11-20T05:07:19.587Z,83.07
2022-11-20T05:12:20.723Z,82.61
2022-11-20T05:17:21.812Z,82.23
2022-11-20T05:22:22.973Z,81.95
2022-11-20T05:27:24.233Z,81.74
2022-11-20T05:32:27.888Z,81.58
2022-11-20T05:37:28.975Z,81.40
2022-11-20T05:42:33.333Z,81.23
2022-11-20T05:47:35.532Z,81.05
2022-11-20T05:52:36.690Z,80.95
2022-11-20T05:57:37.854Z,81.32
2022-11-20T06:02:38.982Z,81.51
2022-11-20T06:07:40.156Z,81.90
2022-11-20T06:12:41.253Z,82.12
2022-11-20T06:17:42.394Z,82.18
2022-11-20T06:22:43.422Z,82.02
2022-11-20T06:27:44.510Z,81.89
2022-11-20T06:32:45.630Z,81.82
2022-11-20T06:37:46.836Z,82.01
2022-11-20T06:42:47.952Z,82.18
2022-11-20T06:47:49.045Z,82.09
2022-11-20T06:52:50.227Z,82.18
2022-11-20T06:57:55.762Z,82.28
2022-11-20T07:02:57.062Z,82.55
2022-11-20T07:07:58.604Z,83.25
2022-11-20T07:13:00.179Z,84.16
2022-11-20T07:18:02.154Z,84.78
2022-11-20T07:23:03.330Z,85.31
2022-11-20T07:28:04.886Z,86.00
2022-11-20T07:33:06.003Z,86.57
2022-11-20T07:38:07.101Z,86.78
2022-11-20T07:43:08.473Z,86.90
2022-11-20T07:48:09.630Z,86.89
2022-11-20T07:53:10.790Z,86.82
2022-11-20T07:58:11.835Z,86.93
2022-11-20T08:03:13.371Z,86.93
2022-11-20T08:08:14.579Z,87.05
2022-11-20T08:13:44.719Z,87.26
2022-11-20T08:18:45.760Z,87.32
2022-11-20T08:23:46.799Z,87.32
2022-11-20T08:28:47.863Z,87.29
2022-11-20T08:33:49.877Z,87.08
2022-11-20T08:38:55.871Z,86.90
2022-11-20T08:44:00.180Z,86.59
2022-11-20T08:49:01.338Z,85.92
2022-11-20T08:54:03.627Z,85.71
2022-11-20T09:04:26.018Z,83.98
2022-11-20T09:09:27.038Z,83.47
2022-11-20T09:14:30.435Z,82.80
2022-11-20T09:19:35.749Z,82.00
2022-11-20T09:24:37.875Z,81.58
2022-11-20T09:29:38.993Z,80.83
2022-11-20T09:34:40.149Z,79.66
2022-11-20T09:39:41.394Z,80.26
2022-11-20T09:45:16.671Z,80.08
2022-11-20T09:50:37.084Z,80.30
2022-11-20T09:55:40.082Z,80.89
2022-11-20T10:00:41.916Z,80.76
2022-11-20T10:05:47.750Z,80.77
2022-11-20T10:11:06.126Z,81.10
2022-11-20T10:16:26.961Z,80.99
2022-11-20T10:21:46.515Z,79.72
2022-11-20T10:27:05.926Z,79.41
2022-11-20T10:32:20.782Z,79.65
2022-11-20T10:37:25.828Z,79.72
2022-11-20T10:42:35.082Z,78.52
2022-11-20T10:47:36.482Z,77.80
2022-11-20T10:53:01.167Z,76.73
2022-11-20T10:58:14.820Z,74.21
2022-11-20T11:03:25.886Z,72.68
2022-11-20T11:08:33.118Z,72.91
2022-11-20T11:13:34.271Z,69.61
2022-11-20T11:18:35.704Z,68.30
2022-11-20T11:23:40.076Z,67.67
2022-11-20T11:28:41.232Z,67.35
2022-11-20T11:33:42.397Z,69.00
2022-11-20T11:38:44.580Z,67.98
2022-11-20T11:44:14.517Z,67.12
2022-11-20T11:49:18.131Z,67.29
2022-11-20T11:54:46.146Z,65.78
2022-11-20T12:00:12.475Z,66.13
2022-11-20T12:05:27.765Z,65.82
2022-11-20T12:10:44.909Z,66.90
2022-11-20T12:15:47.900Z,67.03
2022-11-20T12:21:10.874Z,67.60
2022-11-20T12:26:25.899Z,66.69
2022-11-20T12:31:53.444Z,66.48
2022-11-20T12:37:29.522Z,66.12
2022-11-20T12:43:01.705Z,66.00
2022-11-20T12:48:43.666Z,64.71
2022-11-20T12:54:21.319Z,63.62
2022-11-20T12:59:25.714Z,64.20
2022-11-20T13:04:36.040Z,64.57
2022-11-20T13:09:45.545Z,64.15
2022-11-20T13:14:52.397Z,65.07
2022-11-20T13:19:57.593Z,65.70
2022-11-20T13:24:58.817Z,66.37
2022-11-20T13:30:13.393Z,66.77
2022-11-20T13:35:35.192Z,67.13
2022-11-20T13:40:39.475Z,65.77
2022-11-20T13:45:40.630Z,64.64
2022-11-20T13:51:03.203Z,63.71
2022-11-20T13:56:26.167Z,63.60
2022-11-20T14:01:34.971Z,63.99
2022-11-20T14:06:43.650Z,64.51
2022-11-20T14:11:48.329Z,64.30
2022-11-20T14:16:52.493Z,65.56
2022-11-20T14:22:08.932Z,65.01
2022-11-20T14:27:21.666Z,64.98
2022-11-20T14:32:28.629Z,65.69
2022-11-20T14:37:36.500Z,66.12
2022-11-20T14:42:37.785Z,66.19
2022-11-20T14:47:39.523Z,66.41
2022-11-20T14:52:51.277Z,66.78
2022-11-20T14:57:57.642Z,67.14
2022-11-20T15:02:59.282Z,67.00
2022-11-20T15:08:09.183Z,67.02
2022-11-20T15:13:16.510Z,67.07
2022-11-20T15:18:30.296Z,67.37
2022-11-20T15:23:31.406Z,67.61
2022-11-20T15:28:44.471Z,68.03
2022-11-20T15:33:45.770Z,67.71
2022-11-20T15:38:47.056Z,68.00
2022-11-20T15:43:48.704Z,67.39
2022-11-20T15:48:54.781Z,67.86
2022-11-20T15:53:56.645Z,67.91
2022-11-20T15:58:57.816Z,68.02
2022-11-20T16:04:00.118Z,68.29
2022-11-20T16:09:01.178Z,68.51
2022-11-20T16:14:22.184Z,68.86
2022-11-20T16:19:23.534Z,68.76
2022-11-20T16:24:25.077Z,68.63
2022-11-20T16:29:26.751Z,69.51
2022-11-20T16:34:28.156Z,69.57
2022-11-20T16:39:29.834Z,70.35
2022-11-20T16:44:31.003Z,72.03
2022-11-20T16:49:32.774Z,73.36
2022-11-20T16:54:33.881Z,73.34
2022-11-20T16:59:34.992Z,73.08
2022-11-20T17:04:36.560Z,72.19
2022-11-20T17:09:38.542Z,73.36
2022-11-20T17:14:39.643Z,73.43
2022-11-20T17:19:40.718Z,73.30
2022-11-20T17:24:41.917Z,74.23
2022-11-20T17:29:43.084Z,74.03
2022-11-20T17:34:44.197Z,74.94
2022-11-20T17:39:45.397Z,75.57
2022-11-20T17:44:46.874Z,75.32
2022-11-20T17:49:48.337Z,76.56
2022-11-20T17:54:49.599Z,77.07
2022-11-20T17:59:50.761Z,76.77
2022-11-20T18:04:51.920Z,76.31
2022-11-20T18:09:53.134Z,75.74
2022-11-20T18:14:54.428Z,76.11
2022-11-20T18:20:21.840Z,77.22
2022-11-20T18:25:16.750Z,76.94
2022-11-20T18:30:17.952Z,77.62
2022-11-20T18:35:19.132Z,77.83
2022-11-20T18:40:20.239Z,77.26
2022-11-20T18:45:21.349Z,77.47
2022-11-20T18:50:22.551Z,77.12
2022-11-20T18:55:25.430Z,76.85
2022-11-20T19:00:26.728Z,77.29
2022-11-20T19:05:27.859Z,78.44
2022-11-20T19:10:29.027Z,78.75
2022-11-20T19:15:32.537Z,78.56
2022-11-20T19:20:33.908Z,78.38
2022-11-20T19:25:38.170Z,78.75
2022-11-20T19:30:41.242Z,78.23
2022-11-20T19:35:42.508Z,78.29
2022-11-20T19:40:43.559Z,78.22
2022-11-20T19:45:44.672Z,78.61
2022-11-20T19:50:45.886Z,78.56
2022-11-20T19:55:58.004Z,78.63
2022-11-20T20:01:12.882Z,78.46
2022-11-20T20:06:17.264Z,78.49
2022-11-20T20:11:21.049Z,78.30
2022-11-20T20:16:24.561Z,78.18
2022-11-20T20:21:25.823Z,78.63
2022-11-20T20:26:29.541Z,78.69
2022-11-20T20:31:32.914Z,79.38
2022-11-20T20:36:34.055Z,79.28
2022-11-20T20:41:35.161Z,79.45
2022-11-20T20:46:36.367Z,79.80
2022-11-20T20:51:38.007Z,80.37
2022-11-20T20:56:39.663Z,80.80
2022-11-20T21:01:40.923Z,80.01
2022-11-20T21:06:42.103Z,79.89
2022-11-20T21:11:43.265Z,79.99
2022-11-20T21:16:44.419Z,80.29
2022-11-20T21:22:02.428Z,80.78
2022-11-20T21:27:04.939Z,80.75
2022-11-20T21:32:06.136Z,80.43
2022-11-20T21:37:07.174Z,80.32
2022-11-20T21:42:08.263Z,80.57
2022-11-20T21:47:09.348Z,80.54
2022-11-20T21:52:10.464Z,80.93
2022-11-20T21:57:11.625Z,80.67
2022-11-20T22:02:12.784Z,80.59
2022-11-20T22:07:13.930Z,80.18
2022-11-20T22:12:22.019Z,79.16
2022-11-20T22:17:43.095Z,78.52
2022-11-20T22:22:44.236Z,78.78
2022-11-20T22:27:45.990Z,78.95
2022-11-20T22:32:47.131Z,79.27
2022-11-20T22:37:48.533Z,79.87
2022-11-20T22:42:49.670Z,80.15
2022-11-20T22:47:57.270Z,79.88
2022-11-20T22:52:58.327Z,80.47
2022-11-20T22:57:59.422Z,81.77
2022-11-20T23:03:00.667Z,82.85
2022-11-20T23:08:01.866Z,82.40
2022-11-20T23:13:03.111Z,79.54
2022-11-20T23:18:04.373Z,81.58
2022-11-20T23:23:05.497Z,83.75
2022-11-20T23:28:06.758Z,84.64
2022-11-20T23:33:07.983Z,84.85
2022-11-20T23:38:10.372Z,85.03
2022-11-20T23:43:14.415Z,85.06
2022-11-20T23:48:15.573Z,84.95
2022-11-20T23:53:18.084Z,84.17
2022-11-20T23:58:20.668Z,83.78
